AFR62RF LFPG-LFBD
Flight info
| Callsign | AFR62RF |
|---|---|
| Flight time | N/A |
| Altitude | 29000 |
| Route | AGOPA DCT ARKIP DCT ARNAV DCT LMG |
| Aircraft | A319/M-SDE3FGHIRWY/LB1 |
Departure
| Time | 2026-05-08 19:21 |
|---|---|
| Airport | Charles de Gaulle International Airport (LFPG) |
Arrival
| Time | N/A |
|---|---|
| Airport | Bordeaux–Mérignac Airport (LFBD) |
| Time | Latitude | Longitude | Altitude | Speed | Heading |
|---|---|---|---|---|---|
| 2026-05-08 18:59 | 49.00169 | 2.58419 | 355 ft | 0 kts | 85° |
| 2026-05-08 19:10 | 49.00168 | 2.58399 | 362 ft | 4 kts | 85° |
| 2026-05-08 19:10 | 49.00166 | 2.58359 | 360 ft | 4 kts | 95° |
| 2026-05-08 19:10 | 49.00173 | 2.58321 | 360 ft | 4 kts | 129° |
| 2026-05-08 19:10 | 49.00187 | 2.58306 | 358 ft | 0 kts | 175° |
| 2026-05-08 19:12 | 49.00181 | 2.58307 | 360 ft | 3 kts | 175° |
| 2026-05-08 19:13 | 49.00149 | 2.58311 | 358 ft | 5 kts | 175° |
| 2026-05-08 19:13 | 49.00118 | 2.58314 | 354 ft | 2 kts | 175° |
| 2026-05-08 19:13 | 49.00100 | 2.58316 | 360 ft | 3 kts | 175° |
| 2026-05-08 19:13 | 49.00079 | 2.58319 | 354 ft | 3 kts | 175° |
| 2026-05-08 19:14 | 49.00077 | 2.58319 | 354 ft | 0 kts | 175° |
| 2026-05-08 19:14 | 49.00073 | 2.58320 | 356 ft | 1 kts | 175° |
| 2026-05-08 19:14 | 49.00056 | 2.58322 | 354 ft | 5 kts | 176° |
| 2026-05-08 19:14 | 49.00021 | 2.58295 | 356 ft | 7 kts | 232° |
| 2026-05-08 19:15 | 49.00005 | 2.58198 | 354 ft | 12 kts | 265° |
| 2026-05-08 19:15 | 48.99998 | 2.58069 | 354 ft | 12 kts | 265° |
| 2026-05-08 19:15 | 48.99990 | 2.57936 | 359 ft | 13 kts | 262° |
| 2026-05-08 19:15 | 48.99984 | 2.57797 | 354 ft | 13 kts | 269° |
| 2026-05-08 19:16 | 48.99976 | 2.57654 | 358 ft | 14 kts | 264° |
| 2026-05-08 19:16 | 48.99967 | 2.57509 | 354 ft | 14 kts | 264° |
| 2026-05-08 19:16 | 48.99959 | 2.57359 | 357 ft | 14 kts | 265° |
| 2026-05-08 19:16 | 48.99951 | 2.57207 | 354 ft | 15 kts | 265° |
| 2026-05-08 19:17 | 48.99943 | 2.57050 | 358 ft | 15 kts | 265° |
| 2026-05-08 19:17 | 48.99934 | 2.56891 | 354 ft | 15 kts | 265° |
| 2026-05-08 19:17 | 48.99925 | 2.56727 | 356 ft | 16 kts | 264° |
| 2026-05-08 19:17 | 48.99874 | 2.56594 | 356 ft | 16 kts | 206° |
| 2026-05-08 19:18 | 48.99823 | 2.56460 | 354 ft | 16 kts | 264° |
| 2026-05-08 19:18 | 48.99814 | 2.56293 | 359 ft | 16 kts | 265° |
| 2026-05-08 19:18 | 48.99803 | 2.56124 | 354 ft | 16 kts | 264° |
| 2026-05-08 19:18 | 48.99732 | 2.56032 | 354 ft | 14 kts | 175° |
| 2026-05-08 19:19 | 48.99715 | 2.56034 | 354 ft | 0 kts | 174° |
| 2026-05-08 19:19 | 48.99704 | 2.56036 | 354 ft | 5 kts | 175° |
| 2026-05-08 19:20 | 48.99646 | 2.56042 | 354 ft | 12 kts | 173° |
| 2026-05-08 19:20 | 48.99615 | 2.56111 | 355 ft | 15 kts | 88° |
| 2026-05-08 19:20 | 48.99652 | 2.56793 | 355 ft | 95 kts | 85° |
| 2026-05-08 19:20 | 48.99724 | 2.58139 | 363 ft | 154 kts | 85° |
| 2026-05-08 19:21 | 48.99824 | 2.59789 | 919 ft | 155 kts | 83° |
| 2026-05-08 19:21 | 48.99913 | 2.61424 | 1612 ft | 155 kts | 85° |
| 2026-05-08 19:21 | 48.99996 | 2.63055 | 2291 ft | 155 kts | 85° |
| 2026-05-08 19:21 | 49.00079 | 2.64690 | 2943 ft | 155 kts | 85° |
| 2026-05-08 19:22 | 49.00163 | 2.66329 | 3550 ft | 157 kts | 85° |
| 2026-05-08 19:22 | 49.00254 | 2.68091 | 3869 ft | 178 kts | 85° |
| 2026-05-08 19:22 | 49.00358 | 2.70091 | 4164 ft | 201 kts | 85° |
| 2026-05-08 19:22 | 49.00476 | 2.72351 | 4483 ft | 227 kts | 86° |
| 2026-05-08 19:23 | 49.00603 | 2.74874 | 4914 ft | 251 kts | 86° |
| 2026-05-08 19:23 | 49.00724 | 2.77615 | 5547 ft | 266 kts | 90° |
| 2026-05-08 19:23 | 49.00517 | 2.80447 | 6385 ft | 272 kts | 100° |
| 2026-05-08 19:23 | 49.00215 | 2.83323 | 7232 ft | 278 kts | 101° |
| 2026-05-08 19:24 | 48.99889 | 2.86255 | 8076 ft | 284 kts | 101° |
| 2026-05-08 19:24 | 48.99556 | 2.89246 | 8906 ft | 290 kts | 101° |
| 2026-05-08 19:24 | 48.99221 | 2.92298 | 9740 ft | 296 kts | 101° |
| 2026-05-08 19:24 | 48.98881 | 2.95428 | 10384 ft | 308 kts | 101° |
| 2026-05-08 19:25 | 48.98211 | 2.98641 | 10686 ft | 328 kts | 120° |
| 2026-05-08 19:25 | 48.96819 | 3.01409 | 11310 ft | 332 kts | 140° |
| 2026-05-08 19:25 | 48.94880 | 3.03295 | 12056 ft | 333 kts | 160° |
| 2026-05-08 19:25 | 48.92631 | 3.04057 | 12811 ft | 333 kts | 180° |
| 2026-05-08 19:26 | 48.90342 | 3.03577 | 13553 ft | 334 kts | 200° |
| 2026-05-08 19:26 | 48.88303 | 3.01897 | 14233 ft | 336 kts | 220° |
| 2026-05-08 19:26 | 48.86776 | 2.99227 | 14900 ft | 338 kts | 240° |
| 2026-05-08 19:26 | 48.85942 | 2.95902 | 15580 ft | 340 kts | 260° |
| 2026-05-08 19:27 | 48.85690 | 2.92328 | 16288 ft | 342 kts | 265° |
| 2026-05-08 19:27 | 48.85486 | 2.88711 | 16982 ft | 345 kts | 265° |
| 2026-05-08 19:27 | 48.85285 | 2.85074 | 17674 ft | 347 kts | 265° |
| 2026-05-08 19:27 | 48.84972 | 2.81425 | 18339 ft | 351 kts | 256° |
| 2026-05-08 19:28 | 48.83973 | 2.78038 | 18889 ft | 356 kts | 237° |
| 2026-05-08 19:28 | 48.82242 | 2.75325 | 19426 ft | 365 kts | 217° |
| 2026-05-08 19:28 | 48.79933 | 2.73632 | 19946 ft | 374 kts | 201° |
| 2026-05-08 19:28 | 48.77499 | 2.72220 | 20456 ft | 376 kts | 208° |
| 2026-05-08 19:29 | 48.75227 | 2.70229 | 20967 ft | 379 kts | 217° |
| 2026-05-08 19:29 | 48.73080 | 2.67885 | 21481 ft | 382 kts | 220° |
| 2026-05-08 19:29 | 48.70978 | 2.65396 | 21989 ft | 386 kts | 221° |
| 2026-05-08 19:29 | 48.68845 | 2.62876 | 22494 ft | 391 kts | 221° |
| 2026-05-08 19:30 | 48.66657 | 2.60390 | 22970 ft | 397 kts | 219° |
| 2026-05-08 19:30 | 48.64380 | 2.57916 | 23116 ft | 411 kts | 218° |
| 2026-05-08 19:30 | 48.61988 | 2.55414 | 23256 ft | 423 kts | 217° |
| 2026-05-08 19:30 | 48.59528 | 2.52901 | 23565 ft | 430 kts | 216° |
| 2026-05-08 19:31 | 48.57029 | 2.50370 | 23923 ft | 434 kts | 216° |
| 2026-05-08 19:31 | 48.54518 | 2.47823 | 24297 ft | 436 kts | 216° |
| 2026-05-08 19:31 | 48.51998 | 2.45258 | 24689 ft | 438 kts | 217° |
| 2026-05-08 19:31 | 48.49466 | 2.42669 | 25070 ft | 440 kts | 217° |
| 2026-05-08 19:32 | 48.46932 | 2.40069 | 25459 ft | 442 kts | 217° |
| 2026-05-08 19:32 | 48.44388 | 2.37456 | 25845 ft | 444 kts | 217° |
| 2026-05-08 19:32 | 48.41828 | 2.34823 | 26228 ft | 446 kts | 217° |
| 2026-05-08 19:32 | 48.39263 | 2.32186 | 26598 ft | 447 kts | 217° |
| 2026-05-08 19:33 | 48.36691 | 2.29549 | 26979 ft | 449 kts | 217° |
| 2026-05-08 19:33 | 48.34106 | 2.26908 | 27341 ft | 451 kts | 217° |
| 2026-05-08 19:33 | 48.31501 | 2.24257 | 27690 ft | 452 kts | 217° |
| 2026-05-08 19:33 | 48.28889 | 2.21603 | 28027 ft | 454 kts | 217° |
| 2026-05-08 19:34 | 48.26269 | 2.18940 | 28361 ft | 456 kts | 217° |
| 2026-05-08 19:34 | 48.23635 | 2.16269 | 28682 ft | 458 kts | 217° |
| 2026-05-08 19:34 | 48.20985 | 2.13586 | 29008 ft | 460 kts | 216° |
| 2026-05-08 19:34 | 48.18328 | 2.10915 | 29329 ft | 461 kts | 216° |
| 2026-05-08 19:35 | 48.15655 | 2.08248 | 29648 ft | 463 kts | 216° |
| 2026-05-08 19:35 | 48.12963 | 2.05580 | 29930 ft | 465 kts | 214° |
| 2026-05-08 19:35 | 48.10090 | 2.03335 | 30205 ft | 469 kts | 204° |
| 2026-05-08 19:35 | 48.06957 | 2.01895 | 30456 ft | 473 kts | 193° |
| 2026-05-08 19:36 | 48.03689 | 2.01323 | 30814 ft | 475 kts | 183° |
| 2026-05-08 19:36 | 48.00388 | 2.01456 | 31183 ft | 474 kts | 179° |
| 2026-05-08 19:36 | 47.97099 | 2.01654 | 31583 ft | 472 kts | 179° |
| 2026-05-08 19:36 | 47.93827 | 2.01846 | 32022 ft | 469 kts | 180° |
| 2026-05-08 19:37 | 47.90574 | 2.02034 | 32414 ft | 468 kts | 180° |
| 2026-05-08 19:37 | 47.87326 | 2.02218 | 32798 ft | 466 kts | 180° |
| 2026-05-08 19:37 | 47.84087 | 2.02404 | 33018 ft | 465 kts | 180° |
| 2026-05-08 19:38 | 47.77627 | 2.02785 | 33012 ft | 463 kts | 180° |
| 2026-05-08 19:38 | 47.71214 | 2.03176 | 33025 ft | 460 kts | 180° |
| 2026-05-08 19:39 | 47.64825 | 2.03287 | 33025 ft | 457 kts | 188° |
| 2026-05-08 19:39 | 47.58716 | 2.00956 | 33023 ft | 453 kts | 204° |
| 2026-05-08 19:40 | 47.52855 | 1.97525 | 33008 ft | 453 kts | 203° |
| 2026-05-08 19:40 | 47.46994 | 1.94147 | 33011 ft | 452 kts | 202° |
| 2026-05-08 19:41 | 47.41132 | 1.90787 | 33006 ft | 452 kts | 202° |
| 2026-05-08 19:41 | 47.35274 | 1.87411 | 32998 ft | 451 kts | 202° |
| 2026-05-08 19:42 | 47.29441 | 1.84063 | 33028 ft | 448 kts | 202° |
| 2026-05-08 19:42 | 47.23647 | 1.80739 | 33032 ft | 445 kts | 202° |
| 2026-05-08 19:43 | 47.18822 | 1.77974 | 33029 ft | 443 kts | 202° |
| 2026-05-08 19:43 | 47.12136 | 1.74220 | 33021 ft | 442 kts | 200° |
| 2026-05-08 19:44 | 47.07324 | 1.71559 | 33019 ft | 440 kts | 201° |
| 2026-05-08 19:44 | 47.01615 | 1.68325 | 33015 ft | 439 kts | 201° |
| 2026-05-08 19:45 | 46.95914 | 1.65105 | 33013 ft | 439 kts | 201° |
| 2026-05-08 19:45 | 46.90220 | 1.61916 | 33024 ft | 438 kts | 200° |
| 2026-05-08 19:46 | 46.84524 | 1.58744 | 33020 ft | 437 kts | 200° |
| 2026-05-08 19:46 | 46.75998 | 1.54006 | 33009 ft | 437 kts | 200° |
| 2026-05-08 19:47 | 46.70316 | 1.50859 | 32997 ft | 437 kts | 200° |
| 2026-05-08 19:47 | 46.64638 | 1.47720 | 32989 ft | 437 kts | 200° |
| 2026-05-08 19:48 | 46.58948 | 1.44578 | 32986 ft | 437 kts | 200° |
| 2026-05-08 19:48 | 46.53268 | 1.41440 | 32979 ft | 437 kts | 200° |
| 2026-05-08 19:49 | 46.47584 | 1.38318 | 32973 ft | 437 kts | 200° |